Time;durP1;ratioP1;P1;durP2;ratioP2;P2;SDS_P1;SDS_P2;PMS_P1;PMS_P2;Temp;Humidity;BMP_temperature;BMP_pressure;BME280_temperature;BME280_humidity;BME280_pressure;Samples;Min_cycle;Max_cycle;Signal;HPM_P1;HPM_P2
2021/06/22 00:00:33;;;;;;;20.48;10.02;;;;;;;;;;5036275;28;20120;-67
2021/06/22 00:02:59;;;;;;;20.08;9.73;;;;;;;;;;5036181;28;20025;-66
2021/06/22 00:05:25;;;;;;;21.58;11.35;;;;;;;;;;5036586;28;20028;-62
2021/06/22 00:07:52;;;;;;;19.77;10.18;;;;;;;;;;5054567;28;20532;-66
2021/06/22 00:10:20;;;;;;;25.67;10.77;;;;;;;;;;5054416;28;20025;-66
2021/06/22 00:12:46;;;;;;;25.95;12.90;;;;;;;;;;5054687;28;20032;-66
2021/06/22 00:15:14;;;;;;;21.58;10.77;;;;;;;;;;5055490;28;20032;-64
2021/06/22 00:17:42;;;;;;;19.53;10.40;;;;;;;;;;5055600;28;20473;-65
2021/06/22 00:20:08;;;;;;;22.13;11.80;;;;;;;;;;5054928;28;20289;-65
2021/06/22 00:22:34;;;;;;;19.75;9.93;;;;;;;;;;5036654;28;20371;-65
2021/06/22 00:25:00;;;;;;;19.83;9.40;;;;;;;;;;5055933;28;20078;-65
2021/06/22 00:27:26;;;;;;;19.10;10.55;;;;;;;;;;5055384;28;20419;-68
2021/06/22 00:29:52;;;;;;;19.58;10.00;;;;;;;;;;5037668;28;20132;-66
2021/06/22 00:32:18;;;;;;;20.73;10.70;;;;;;;;;;5055071;28;20025;-64
2021/06/22 00:34:45;;;;;;;20.45;9.93;;;;;;;;;;5037186;28;20029;-66
2021/06/22 00:37:14;;;;;;;21.85;11.18;;;;;;;;;;5037125;28;20033;-66
2021/06/22 00:39:40;;;;;;;19.77;10.05;;;;;;;;;;5054973;28;20112;-65
2021/06/22 00:42:06;;;;;;;29.45;12.50;;;;;;;;;;5037442;28;20077;-66
2021/06/22 00:44:32;;;;;;;20.73;11.00;;;;;;;;;;5054639;28;20389;-64
2021/06/22 00:46:58;;;;;;;30.40;11.27;;;;;;;;;;5054493;28;20029;-64
2021/06/22 00:49:24;;;;;;;20.92;10.13;;;;;;;;;;5036908;28;20025;-64
2021/06/22 00:51:50;;;;;;;20.55;11.80;;;;;;;;;;5054847;28;20021;-64
2021/06/22 00:54:16;;;;;;;19.40;10.73;;;;;;;;;;5054768;28;20044;-63
2021/06/22 00:56:42;;;;;;;19.15;10.73;;;;;;;;;;5054814;28;20053;-66
2021/06/22 00:59:10;;;;;;;20.52;11.48;;;;;;;;;;5036956;28;20029;-64
2021/06/22 01:01:36;;;;;;;24.10;10.50;;;;;;;;;;5054761;28;20451;-66
2021/06/22 01:04:04;;;;;;;22.05;10.40;;;;;;;;;;5037267;28;20056;-63
2021/06/22 01:06:30;;;;;;;18.40;10.63;;;;;;;;;;5054751;28;20021;-64
2021/06/22 01:08:56;;;;;;;21.23;10.63;;;;;;;;;;5036899;28;20440;-65
2021/06/22 01:11:22;;;;;;;20.60;9.95;;;;;;;;;;5035954;28;20063;-63
2021/06/22 01:13:48;;;;;;;19.52;11.18;;;;;;;;;;5054671;28;20033;-63
2021/06/22 01:16:21;;;;;;;22.25;10.55;;;;;;;;;;5054777;28;20032;-64
2021/06/22 01:18:47;;;;;;;24.80;10.40;;;;;;;;;;5054591;28;20029;-65
2021/06/22 01:21:14;;;;;;;19.27;10.45;;;;;;;;;;5054400;28;20024;-64
2021/06/22 01:23:40;;;;;;;22.67;10.90;;;;;;;;;;5054258;28;20507;-64
2021/06/22 01:26:06;;;;;;;21.73;10.50;;;;;;;;;;5054147;28;20396;-65
2021/06/22 01:28:32;;;;;;;22.85;10.55;;;;;;;;;;5054178;28;20504;-65
2021/06/22 01:30:58;;;;;;;19.48;11.52;;;;;;;;;;5036375;28;20400;-64
2021/06/22 01:33:24;;;;;;;19.48;10.45;;;;;;;;;;5036438;28;20085;-64
2021/06/22 01:35:50;;;;;;;25.05;10.50;;;;;;;;;;5053972;28;20108;-65
2021/06/22 01:38:16;;;;;;;22.33;10.52;;;;;;;;;;5054009;28;20485;-64
2021/06/22 01:40:43;;;;;;;20.20;10.65;;;;;;;;;;5036292;28;20025;-65
2021/06/22 01:43:10;;;;;;;24.88;12.15;;;;;;;;;;5054454;28;20059;-64
2021/06/22 01:45:36;;;;;;;20.15;11.15;;;;;;;;;;5054217;28;20025;-64
2021/06/22 01:48:01;;;;;;;19.83;10.60;;;18.10;99.90;;;;;;5054048;28;20021;-65
2021/06/22 01:50:27;;;;;;;24.75;10.43;;;13.90;99.90;;;;;;5054084;28;20064;-64
2021/06/22 01:52:52;;;;;;;19.13;10.02;;;13.60;99.90;;;;;;5054050;28;20021;-64
2021/06/22 01:55:38;;;;;;;21.90;12.75;;;13.50;99.90;;;;;;5053905;28;20366;-63
2021/06/22 01:58:09;;;;;;;19.92;10.77;;;13.50;99.90;;;;;;5054027;28;20029;-65
2021/06/22 02:00:35;;;;;;;21.00;10.88;;;13.30;99.90;;;;;;5053657;28;20501;-65
2021/06/22 02:03:00;;;;;;;21.00;10.80;;;13.40;99.90;;;;;;5053986;28;20048;-64
2021/06/22 02:05:27;;;;;;;25.88;11.80;;;13.30;99.90;;;;;;5053477;28;20480;-65
2021/06/22 02:07:52;;;;;;;19.27;10.88;;;13.20;99.90;;;;;;5053602;28;20032;-64
2021/06/22 02:10:18;;;;;;;21.50;11.50;;;13.20;99.90;;;;;;5053564;28;20111;-65
2021/06/22 02:12:44;;;;;;;21.73;10.90;;;13.20;99.90;;;;;;5035548;28;20117;-64
2021/06/22 02:15:10;;;;;;;21.80;10.88;;;13.20;99.90;;;;;;5035573;28;20374;-65
2021/06/22 02:17:36;;;;;;;21.77;10.93;;;13.10;99.90;;;;;;5053508;28;20032;-64
2021/06/22 02:20:06;;;;;;;27.55;11.73;;;;;;;;;;5053218;28;20100;-64
2021/06/22 02:22:33;;;;;;;22.88;11.50;;;;;;;;;;5052998;28;20074;-64
2021/06/22 02:24:59;;;;;;;23.65;12.45;;;;;;;;;;5053137;28;20017;-65
2021/06/22 02:27:30;;;;;;;21.83;11.77;;;;;;;;;;5053199;28;20017;-64
2021/06/22 02:29:57;;;;;;;23.40;10.35;;;;;;;;;;5053141;28;20029;-65
2021/06/22 02:32:24;;;;;;;19.85;11.30;;;;;;;;;;5035125;28;20539;-64
2021/06/22 02:34:51;;;;;;;26.98;12.82;;;;;;;;;;5052806;28;20025;-65
2021/06/22 02:37:17;;;;;;;24.42;12.68;;;;;;;;;;5035157;28;20025;-65
2021/06/22 02:39:44;;;;;;;22.13;12.13;;;;;;;;;;5052749;28;20029;-63
2021/06/22 02:42:10;;;;;;;26.17;11.80;;;;;;;;;;5052841;28;20056;-66
2021/06/22 02:44:36;;;;;;;21.15;11.82;;;;;;;;;;5034826;28;20021;-67
2021/06/22 02:47:02;;;;;;;20.48;11.27;;;;;;;;;;5052902;28;20017;-66
2021/06/22 02:49:28;;;;;;;23.48;13.23;;;;;;;;;;5035060;28;20116;-66
2021/06/22 02:51:54;;;;;;;21.88;12.68;;;;;;;;;;5052622;28;20098;-66
2021/06/22 02:54:20;;;;;;;23.95;12.93;;;;;;;;;;5052413;28;20441;-66
2021/06/22 02:56:46;;;;;;;25.30;12.30;;;;;;;;;;5034817;28;20057;-66
2021/06/22 02:59:12;;;;;;;26.33;12.80;;;;;;;;;;5052602;28;20377;-66
2021/06/22 03:01:38;;;;;;;22.08;11.52;;;;;;;;;;5052400;28;20029;-67
2021/06/22 03:04:04;;;;;;;25.27;14.43;;;;;;;;;;5052571;28;20033;-64
2021/06/22 03:06:30;;;;;;;25.65;12.85;;;;;;;;;;5034294;28;20031;-67
2021/06/22 03:08:56;;;;;;;24.88;12.55;;;;;;;;;;5052416;28;20380;-66
2021/06/22 03:11:22;;;;;;;26.42;12.52;;;;;;;;;;5034777;28;20090;-65
2021/06/22 03:13:48;;;;;;;24.40;12.10;;;;;;;;;;5034565;28;20105;-65
2021/06/22 03:16:14;;;;;;;22.88;13.05;;;;;;;;;;5034223;28;20083;-65
2021/06/22 03:18:40;;;;;;;21.70;12.15;;;;;;;;;;5052157;28;20036;-65
2021/06/22 03:21:06;;;;;;;24.40;12.68;;;;;;;;;;5034302;28;20017;-66
2021/06/22 03:23:32;;;;;;;24.25;12.98;;;;;;;;;;5052077;28;20029;-66
2021/06/22 03:25:58;;;;;;;22.25;12.70;;;;;;;;;;5052085;28;20075;-66
2021/06/22 03:28:24;;;;;;;24.17;12.52;;;;;;;;;;5052941;28;20032;-66
2021/06/22 03:30:50;;;;;;;23.85;12.98;;;;;;;;;;5054676;28;20071;-66
2021/06/22 03:33:18;;;;;;;26.20;12.93;;;;;;;;;;5054969;28;20044;-65
2021/06/22 03:35:44;;;;;;;25.13;12.43;;;;;;;;;;5054425;28;20036;-66
2021/06/22 03:38:10;;;;;;;20.48;11.32;;;;;;;;;;5052383;28;20021;-66
2021/06/22 03:40:36;;;;;;;30.80;13.93;;;;;;;;;;5034360;28;20519;-66
2021/06/22 03:43:05;;;;;;;21.70;12.07;;;;;;;;;;5051802;28;20033;-66
2021/06/22 03:45:31;;;;;;;24.17;12.82;;;;;;;;;;5051699;28;20020;-66
2021/06/22 03:47:57;;;;;;;23.60;12.48;;;;;;;;;;5051831;28;20021;-66
2021/06/22 03:50:23;;;;;;;25.45;12.43;;;;;;;;;;5033957;28;20385;-66
2021/06/22 03:52:49;;;;;;;23.63;13.25;;;;;;;;;;5034099;28;20116;-64
2021/06/22 03:55:27;;;;;;;28.30;13.85;;;;;;;;;;5051571;28;20131;-66
2021/06/22 03:57:53;;;;;;;;;;;;;;;;;;5052340;28;20021;-65
2021/06/22 04:00:20;;;;;;;24.92;12.70;;;;;;;;;;5051900;28;19962;-66
2021/06/22 04:02:46;;;;;;;24.15;12.73;;;;;;;;;;5051688;28;20029;-66
2021/06/22 04:05:12;;;;;;;22.95;12.90;;;;;;;;;;5051958;28;20623;-66
2021/06/22 04:07:38;;;;;;;22.13;13.35;;;;;;;;;;5033831;28;20499;-64
2021/06/22 04:10:05;;;;;;;19.73;11.30;;;;;;;;;;5051540;28;20033;-64
2021/06/22 04:12:31;;;;;;;25.25;11.77;;;;;;;;;;5051647;28;20025;-65
2021/06/22 04:14:56;;;;;;;22.92;12.38;;;;;;;;;;5051401;28;20028;-64
2021/06/22 04:17:22;;;;;;;24.85;12.73;;;;;;;;;;5034052;28;20101;-66
2021/06/22 04:19:48;;;;;;;23.23;13.05;;;;;;;;;;5033551;28;20040;-65
2021/06/22 04:22:14;;;;;;;29.27;14.20;;;;;;;;;;5033007;28;20378;-65
2021/06/22 04:24:40;;;;;;;24.90;13.85;;;;;;;;;;5050771;28;20044;-63
2021/06/22 04:27:06;;;;;;;22.38;12.45;;;;;;;;;;5051405;28;20536;-65
2021/06/22 04:29:32;;;;;;;25.80;13.15;;;;;;;;;;5051355;28;20103;-65
2021/06/22 04:31:59;;;;;;;24.20;13.13;;;;;;;;;;5051132;28;20461;-64
2021/06/22 04:34:25;;;;;;;20.25;12.23;;;;;;;;;;5050988;28;20084;-66
2021/06/22 04:36:51;;;;;;;28.00;12.75;;;;;;;;;;5051285;28;20056;-65
2021/06/22 04:39:17;;;;;;;20.85;12.68;;;;;;;;;;5033324;28;20032;-64
2021/06/22 04:41:43;;;;;;;28.10;13.10;;;;;;;;;;5033079;28;20025;-66
2021/06/22 04:44:09;;;;;;;20.05;12.18;;;;;;;;;;5032679;28;20370;-64
2021/06/22 04:46:35;;;;;;;24.80;12.05;;;;;;;;;;5035059;28;20032;-65
2021/06/22 04:49:01;;;;;;;22.70;11.60;;;;;;;;;;5054184;28;20024;-64
2021/06/22 04:51:27;;;;;;;27.23;17.15;;;;;;;;;;5054010;28;20481;-65
2021/06/22 04:53:53;;;;;;;24.42;12.40;;;;;;;;;;5054329;28;20143;-66
2021/06/22 04:56:21;;;;;;;22.42;12.45;;;;;;;;;;5054189;28;20523;-64
2021/06/22 04:58:47;;;;;;;21.60;12.63;;;;;;;;;;5054846;28;20145;-66
2021/06/22 05:01:13;;;;;;;24.65;11.85;;;;;;;;;;5054247;28;20084;-65
2021/06/22 05:03:39;;;;;;;20.30;11.75;;;;;;;;;;5036909;28;20031;-65
2021/06/22 05:06:05;;;;;;;26.05;12.85;;;;;;;;;;5054118;28;20116;-64
2021/06/22 05:08:31;;;;;;;20.33;11.10;;;;;;;;;;5036339;28;20044;-63
2021/06/22 05:10:57;;;;;;;24.58;13.18;;;;;;;;;;5054200;28;20058;-66
2021/06/22 05:13:23;;;;;;;22.63;12.10;;;;;;;;;;5053944;28;20029;-65
2021/06/22 05:15:49;;;;;;;26.02;11.88;;;;;;;;;;5054562;28;20029;-66
2021/06/22 05:18:15;;;;;;;23.85;12.40;;;;;;;;;;5054330;28;20051;-65
2021/06/22 05:20:41;;;;;;;23.48;11.55;;;;;;;;;;5036162;28;20400;-66
2021/06/22 05:23:07;;;;;;;27.63;12.25;;;;;;;;;;5054059;28;20047;-61
2021/06/22 05:25:33;;;;;;;23.10;12.02;;;;;;;;;;5053861;28;20384;-65
2021/06/22 05:28:00;;;;;;;22.23;11.60;;;;;;;;;;5053814;28;20025;-64
2021/06/22 05:30:26;;;;;;;21.75;11.48;;;;;;;;;;5053977;28;20391;-65
2021/06/22 05:32:52;;;;;;;24.40;11.98;;;;;;;;;;5053985;28;20115;-65
2021/06/22 05:35:18;;;;;;;21.35;11.75;;;;;;;;;;5035790;28;20049;-65
2021/06/22 05:37:44;;;;;;;24.42;12.75;;;;;;;;;;5053728;28;20036;-64
2021/06/22 05:40:10;;;;;;;22.08;11.48;;;;;;;;;;5053276;28;20029;-64
2021/06/22 05:42:36;;;;;;;30.08;13.43;;;;;;;;;;5052966;28;20032;-65
2021/06/22 05:45:03;;;;;;;23.58;11.98;;;;;;;;;;5034801;28;20025;-65
2021/06/22 05:47:29;;;;;;;21.83;10.95;;;;;;;;;;5053536;28;20021;-64
2021/06/22 05:49:55;;;;;;;24.98;12.80;;;;;;;;;;5035820;28;20047;-65
2021/06/22 05:52:21;;;;;;;22.73;11.60;;;;;;;;;;5053242;28;20018;-65
2021/06/22 05:54:47;;;;;;;25.80;12.88;;;;;;;;;;5052586;28;20052;-65
2021/06/22 05:57:13;;;;;;;23.40;12.23;;;;;;;;;;5034840;28;20055;-65
2021/06/22 05:59:39;;;;;;;22.85;12.27;;;;;;;;;;5034813;28;20051;-66
2021/06/22 06:02:05;;;;;;;22.80;11.60;;;;;;;;;;5052527;28;20116;-66
2021/06/22 06:04:31;;;;;;;23.83;12.40;;;;;;;;;;5034302;28;20476;-67
2021/06/22 06:06:57;;;;;;;20.25;11.20;;;;;;;;;;5053505;28;20028;-67
2021/06/22 06:09:27;;;;;;;24.90;11.73;;;;;;;;;;5053345;28;20017;-66
2021/06/22 06:11:55;;;;;;;25.15;11.70;;;;;;;;;;5053046;28;20400;-66
2021/06/22 06:14:22;;;;;;;22.20;11.52;;;;;;;;;;5052858;28;20103;-66
2021/06/22 06:16:48;;;;;;;20.92;11.10;;;;;;;;;;5052472;28;20033;-65
2021/06/22 06:19:14;;;;;;;21.67;10.60;;;;;;;;;;5035459;28;20025;-65
2021/06/22 06:21:40;;;;;;;21.83;10.90;;;;;;;;;;5052407;28;20514;-64
2021/06/22 06:24:10;;;;;;;20.63;10.48;;;;;;;;;;5053150;28;20029;-65
2021/06/22 06:32:11;;;;;;;17.50;10.30;;;;;;;;;;4991567;28;20134;-68
2021/06/22 06:34:37;;;;;;;24.92;10.90;;;;;;;;;;5021338;28;20033;-68
2021/06/22 06:37:03;;;;;;;22.58;11.55;;;;;;;;;;5067080;28;20036;-68
2021/06/22 06:39:30;;;;;;;26.60;12.82;;;;;;;;;;5072521;28;20031;-68
2021/06/22 06:41:56;;;;;;;19.77;11.77;;;;;;;;;;5072522;28;20024;-68
2021/06/22 06:44:22;;;;;;;20.75;10.55;;;;;;;;;;5053830;28;20028;-68
2021/06/22 06:46:48;;;;;;;25.33;13.10;;;;;;;;;;5035164;28;20103;-67
2021/06/22 06:49:14;;;;;;;21.42;10.55;;;;;;;;;;5052607;28;20537;-67
2021/06/22 06:51:40;;;;;;;18.50;9.70;;;;;;;;;;5035019;28;20033;-67
2021/06/22 06:54:06;;;;;;;19.13;10.35;;;;;;;;;;5045531;28;20052;-67
2021/06/22 06:56:32;;;;;;;23.88;13.93;;;;;;;;;;5072422;28;20047;-67
2021/06/22 06:58:58;;;;;;;21.45;11.15;;;;;;;;;;5072580;28;20566;-66
2021/06/22 07:01:24;;;;;;;20.33;10.05;;;;;;;;;;5054531;28;20036;-66
2021/06/22 07:03:50;;;;;;;19.30;10.30;;;;;;;;;;5072753;28;20024;-67
2021/06/22 07:06:16;;;;;;;20.25;10.45;;;;;;;;;;5072452;28;20590;-67
2021/06/22 07:08:42;;;;;;;20.13;12.23;;;;;;;;;;5071745;28;20445;-66
2021/06/22 07:11:08;;;;;;;22.02;10.95;;;;;;;;;;5044030;28;20405;-66
2021/06/22 07:13:34;;;;;;;21.05;10.48;;;;;;;;;;5052705;28;20029;-65
2021/06/22 07:16:00;;;;;;;18.50;11.18;;;;;;;;;;5034363;28;20040;-66
2021/06/22 07:18:29;;;;;;;23.35;11.27;;;;;;;;;;5034820;28;20468;-66
2021/06/22 07:20:56;;;;;;;18.88;10.90;;;;;;;;;;5052289;28;20029;-67
2021/06/22 07:23:22;;;;;;;25.08;12.13;;;;;;;;;;5034432;28;20017;-67
2021/06/22 07:25:48;;;;;;;21.90;14.30;;;;;;;;;;5051548;28;20068;-67
2021/06/22 07:28:14;;;;;;;19.35;10.80;;;;;;;;;;5051928;28;20031;-67
2021/06/22 07:30:40;;;;;;;23.13;10.73;;;;;;;;;;5034469;28;20025;-67
2021/06/22 07:33:06;;;;;;;24.30;11.52;;;;;;;;;;5034420;28;20028;-67
2021/06/22 07:35:33;;;;;;;24.42;10.35;;;;;;;;;;5052146;28;20036;-67
2021/06/22 07:37:59;;;;;;;19.65;10.85;;;;;;;;;;5069543;28;20467;-68
2021/06/22 07:40:26;;;;;;;19.30;9.75;;;;;;;;;;5054047;28;20035;-67
2021/06/22 07:42:53;;;;;;;20.67;10.10;;;;;;;;;;5072290;28;20023;-67
2021/06/22 07:45:20;;;;;;;21.30;10.38;;;;;;;;;;5071872;28;20024;-68
2021/06/22 07:47:46;;;;;;;19.65;10.50;;;;;;;;;;5053754;28;20027;-65
2021/06/22 07:50:12;;;;;;;20.83;10.80;;;;;;;;;;5071805;28;20036;-68
2021/06/22 07:52:39;;;;;;;22.73;11.23;;;;;;;;;;5045787;28;20074;-68
2021/06/22 07:55:06;;;;;;;19.92;10.68;;;;;;;;;;5033583;28;20037;-68
2021/06/22 07:57:32;;;;;;;22.58;12.48;;;;;;;;;;5051801;28;20544;-62
2021/06/22 07:59:58;;;;;;;26.45;11.57;;;;;;;;;;5033400;28;20025;-59
2021/06/22 08:02:24;;;;;;;18.67;10.90;;;;;;;;;;5051319;28;20443;-62
2021/06/22 08:04:50;;;;;;;19.13;10.82;;;;;;;;;;5033473;28;20017;-61
2021/06/22 08:07:16;;;;;;;22.98;10.85;;;;;;;;;;5051327;28;20028;-62
2021/06/22 08:09:42;;;;;;;18.58;11.13;;;;;;;;;;5033980;28;20385;-60
2021/06/22 08:12:09;;;;;;;22.85;11.63;;;;;;;;;;5051049;28;20028;-61
2021/06/22 08:14:35;;;;;;;17.88;11.35;;;;;;;;;;5053552;28;20020;-62
2021/06/22 08:17:01;;;;;;;20.92;12.15;;;;;;;;;;5071252;28;20066;-59
2021/06/22 08:19:27;;;;;;;19.98;11.35;;;;;;;;;;5054576;28;20028;-60
2021/06/22 08:21:53;;;;;;;19.60;10.60;;;;;;;;;;5074881;28;20033;-61
2021/06/22 08:24:19;;;;;;;18.85;11.75;;;;;;;;;;5074696;28;20086;-61
2021/06/22 08:26:45;;;;;;;23.10;11.70;;;;;;;;;;5056904;28;20028;-61
2021/06/22 08:29:11;;;;;;;18.73;11.32;;;;;;;;;;5056838;28;20124;-61
2021/06/22 08:31:37;;;;;;;20.15;11.98;;;;;;;;;;5057083;28;20036;-61
2021/06/22 08:34:03;;;;;;;20.30;12.10;;;;;;;;;;5074750;28;20024;-60
2021/06/22 08:36:29;;;;;;;22.73;11.73;;;;;;;;;;5074618;28;20473;-60
2021/06/22 08:38:56;;;;;;;22.15;11.57;;;;;;;;;;5057098;28;20088;-60
2021/06/22 08:41:25;;;;;;;22.00;12.20;;;;;;;;;;5074891;28;20032;-59
2021/06/22 08:43:52;;;;;;;20.23;12.82;;;;;;;;;;5074683;28;20404;-61
2021/06/22 08:46:18;;;;;;;21.38;13.48;;;;;;;;;;5056529;28;20016;-61
2021/06/22 08:48:44;;;;;;;22.25;13.13;;;;;;;;;;5074648;28;20020;-61
2021/06/22 08:51:10;;;;;;;19.60;13.02;;;;;;;;;;5056309;28;20476;-59
2021/06/22 08:53:36;;;;;;;21.60;13.40;;;;;;;;;;5074684;28;20031;-60
2021/06/22 08:56:02;;;;;;;19.90;14.02;;;;;;;;;;5056592;28;20024;-61
2021/06/22 08:58:28;;;;;;;20.80;13.50;;;;;;;;;;5056755;28;20035;-60
2021/06/22 09:00:54;;;;;;;24.52;14.75;;;;;;;;;;5065519;28;20060;-61
2021/06/22 09:03:26;;;;;;;19.00;12.88;;;;;;;;;;5071802;28;20393;-60
2021/06/22 09:05:58;;;;;;;21.27;12.93;;;;;;;;;;5074206;28;20272;-61
2021/06/22 09:08:26;;;;;;;19.90;12.63;;;;;;;;;;5074555;28;20032;-61
2021/06/22 09:11:05;;;;;;;22.67;13.48;;;;;;;;;;5056442;28;20241;-61
2021/06/22 09:13:32;;;;;;;20.63;13.07;;;;;;;;;;5074897;28;20090;-61
2021/06/22 09:15:58;;;;;;;20.15;13.82;;;;;;;;;;5073917;28;20028;-60
2021/06/22 09:18:24;;;;;;;21.85;13.02;;;;;;;;;;5074582;28;20031;-61
2021/06/22 09:20:50;;;;;;;20.92;13.73;;;;;;;;;;5074366;28;20115;-61
2021/06/22 09:23:18;;;;;;;19.35;14.60;;;;;;;;;;5074286;28;20048;-61
2021/06/22 09:25:45;;;;;;;18.58;13.60;;;;;;;;;;5052558;28;20132;-61
2021/06/22 09:28:12;;;;;;;19.98;13.85;;;;;;;;;;5074128;28;20025;-61
2021/06/22 09:30:38;;;;;;;20.20;14.98;;;;;;;;;;5055397;28;20128;-61
2021/06/22 09:33:16;;;;;;;19.10;14.80;;;;;;;;;;5073814;28;20080;-61
2021/06/22 09:35:42;;;;;;;22.92;14.85;;;;;;;;;;5073727;28;20017;-61
2021/06/22 09:38:08;;;;;;;20.73;14.60;;;;;;;;;;5055816;28;20461;-58
2021/06/22 09:40:34;;;;;;;21.20;15.25;;;;;;;;;;5073828;28;20055;-62
2021/06/22 09:43:00;;;;;;;20.02;14.15;;;;;;;;;;5055627;28;20392;-59
2021/06/22 09:45:28;;;;;;;20.10;15.00;;;;;;;;;;5073509;28;20020;-61
2021/06/22 09:47:58;;;;;;;;;;;;;;;;;;5074257;28;20491;-61
2021/06/22 09:50:39;;;;;;;23.77;15.25;;;;;;;;;;5074157;28;20341;-61
2021/06/22 09:53:24;;;;;;;18.33;13.73;;;;;;;;;;5073602;28;20032;-60
2021/06/22 09:55:50;;;;;;;19.98;14.57;;;;;;;;;;5055605;28;20020;-60
2021/06/22 09:58:16;;;;;;;21.98;13.82;;;;;;;;;;5073130;28;20032;-61
2021/06/22 10:00:42;;;;;;;18.83;13.40;;;;;;;;;;5073381;28;20052;-59
2021/06/22 10:03:10;;;;;;;20.13;14.23;;;;;;;;;;5073558;28;20468;-61
2021/06/22 10:05:52;;;;;;;17.35;14.15;;;;;;;;;;5073462;28;20031;-61
2021/06/22 10:08:18;;;;;;;19.75;13.60;;;;;;;;;;5055137;28;20501;-60
2021/06/22 10:10:44;;;;;;;20.20;14.60;;;;;;;;;;5055478;28;20486;-59
2021/06/22 10:13:30;;;;;;;20.30;14.65;;;;;;;;;;5073030;28;20028;-61
2021/06/22 10:16:15;;;;;;;20.48;15.18;;;;;;;;;;5068404;28;20071;-61
2021/06/22 10:18:41;;;;;;;20.05;15.13;;;;;;;;;;5052720;28;20041;-61
2021/06/22 10:21:07;;;;;;;20.83;15.13;;;;;;;;;;5035196;28;20033;-62
2021/06/22 10:23:32;;;;;;;21.83;14.95;;;;;;;;;;5041193;28;20029;-61
2021/06/22 10:25:59;;;;;;;24.85;15.07;;;;;;;;;;5072130;28;20033;-61
2021/06/22 10:28:25;;;;;;;19.48;14.20;;;;;;;;;;5073059;28;20178;-61
2021/06/22 10:30:51;;;;;;;19.48;13.93;;;;;;;;;;5072955;28;20020;-60
2021/06/22 10:33:17;;;;;;;18.73;14.07;;;;;;;;;;5054541;28;20028;-61
2021/06/22 10:35:45;;;;;;;17.95;14.43;;;;;;;;;;5072231;28;20031;-61
2021/06/22 10:38:12;;;;;;;21.15;15.13;;;;;;;;;;5053623;28;20024;-61
2021/06/22 10:40:38;;;;;;;24.63;13.90;;;;;;;;;;5072621;28;20396;-62
2021/06/22 10:43:07;;;;;;;20.35;13.95;;;;;;;;;;5072448;28;20025;-63
2021/06/22 10:45:52;;;;;;;19.23;14.32;;;;;;;;;;5054479;28;20020;-61
2021/06/22 10:48:19;;;;;;;19.50;15.18;;;;;;;;;;5055073;28;20055;-61
2021/06/22 10:50:45;;;;;;;21.17;14.23;;;;;;;;;;5054901;28;20593;-62
2021/06/22 10:53:11;;;;;;;19.90;14.95;;;;;;;;;;5072378;28;20443;-62
2021/06/22 10:55:41;;;;;;;21.08;14.90;;;;;;;;;;5054081;28;20032;-62
2021/06/22 10:58:08;;;;;;;18.70;15.07;;;;;;;;;;5072571;28;20484;-62
2021/06/22 11:00:44;;;;;;;19.23;15.10;;;;;;;;;;5072452;28;20043;-61
2021/06/22 11:03:11;;;;;;;18.75;15.02;;;;;;;;;;5072098;28;20027;-61
2021/06/22 11:05:37;;;;;;;19.52;15.30;;;;;;;;;;5053942;28;20077;-61
2021/06/22 11:08:09;;;;;;;20.45;14.82;;;;;;;;;;5053906;28;20463;-62
2021/06/22 11:10:36;;;;;;;19.83;14.57;;;;;;;;;;5072387;28;20029;-61
2021/06/22 11:13:03;;;;;;;18.38;14.60;;;;;;;;;;5072230;28;20036;-61
2021/06/22 11:15:47;;;;;;;21.38;14.70;;;;;;;;;;5053053;28;20020;-61
2021/06/22 11:18:18;;;;;;;20.45;14.63;;;;;;;;;;5053691;28;20025;-60
2021/06/22 11:20:45;;;;;;;19.65;14.70;;;;;;;;;;5053531;28;20621;-61
2021/06/22 11:23:12;;;;;;;20.63;14.38;;;;;;;;;;5053093;28;20048;-61
2021/06/22 11:25:47;;;;;;;19.52;14.23;;;;;;;;;;5042330;28;20089;-60
2021/06/22 11:28:13;;;;;;;19.67;14.02;;;;;;;;;;5061101;28;20389;-61
2021/06/22 11:30:48;;;;;;;18.35;14.00;;;;;;;;;;5060424;28;20100;-61
2021/06/22 11:33:34;;;;;;;18.92;14.50;;;;;;;;;;5061159;28;20029;-60
2021/06/22 11:36:21;;;;;;;18.77;14.95;;;;;;;;;;5061551;28;20020;-61
2021/06/22 11:39:06;;;;;;;21.65;15.73;;;;;;;;;;5065387;28;20024;-61
2021/06/22 11:41:32;;;;;;;22.45;15.45;;;;;;;;;;5060680;28;20048;-60
2021/06/22 11:44:08;;;;;;;21.08;15.98;;;;;;;;;;5042160;28;20438;-61
2021/06/22 11:46:34;;;;;;;21.10;16.23;;;;;;;;;;5060530;28;20163;-59
2021/06/22 11:49:01;;;;;;;22.40;16.00;;;;;;;;;;5047056;28;20020;-56
2021/06/22 11:51:46;;;;;;;20.77;15.75;;;;;;;;;;5071150;28;20027;-60
2021/06/22 11:54:12;;;;;;;20.25;15.48;;;;;;;;;;5070972;28;20020;-60
2021/06/22 11:56:38;;;;;;;19.00;15.25;;;;;;;;;;5071486;28;20070;-59
2021/06/22 11:59:04;;;;;;;22.33;16.65;;;;;;;;;;5053619;28;20028;-62
2021/06/22 12:01:30;;;;;;;20.30;17.00;;;;;;;;;;5053392;28;20032;-62
2021/06/22 12:03:57;;;;;;;19.67;16.73;;;;;;;;;;5071242;28;20123;-62
2021/06/22 12:06:23;;;;;;;21.52;16.85;;;;;;;;;;5071120;28;20091;-60
2021/06/22 12:08:49;;;;;;;22.77;16.85;;;;;;;;;;5071625;28;20091;-64
2021/06/22 12:11:31;;;;;;;19.15;16.15;;;;;;;;;;5071543;28;20158;-61
2021/06/22 12:13:57;;;;;;;22.58;17.27;;;;;;;;;;5053428;28;20021;-59
2021/06/22 12:16:33;;;;;;;21.58;17.45;;;;;;;;;;5053212;28;20032;-60
2021/06/22 12:19:00;;;;;;;22.98;17.77;;;;;;;;;;5071589;28;20433;-57
2021/06/22 12:21:27;;;;;;;20.77;17.98;;;;;;;;;;5053220;28;20082;-58
2021/06/22 12:24:00;;;;;;;20.65;18.42;;;;;;;;;;5071361;28;20480;-59
2021/06/22 12:26:26;;;;;;;22.48;18.33;;;;;;;;;;5063927;22;20132;-62
2021/06/22 12:28:52;;;;;;;24.80;19.08;;;;;;;;;;5026114;28;20133;-61
2021/06/22 12:31:18;;;;;;;23.90;18.42;;;;;;;;;;5029829;28;20477;-62
2021/06/22 12:33:47;;;;;;;21.48;17.48;;;;;;;;;;5047546;28;20105;-60
2021/06/22 12:36:21;;;;;;;19.75;17.60;;;;;;;;;;5046818;28;20029;-60
2021/06/22 12:38:54;;;;;;;20.50;17.60;;;;;;;;;;5029157;28;20033;-60
2021/06/22 12:41:25;;;;;;;23.15;17.80;;;;;;;;;;5029559;28;20036;-61
2021/06/22 12:43:52;;;;;;;20.13;16.90;;;;;;;;;;5047978;28;20120;-60
2021/06/22 12:46:19;;;;;;;21.08;18.20;;;;;;;;;;5047618;28;20083;-58
2021/06/22 12:48:45;;;;;;;20.88;17.67;;;;;;;;;;5047558;28;20021;-59
2021/06/22 12:51:13;;;;;;;21.73;18.83;;;;;;;;;;5046928;28;20025;-61
2021/06/22 12:53:39;;;;;;;22.70;18.45;;;;;;;;;;5029236;28;20052;-61
2021/06/22 12:56:12;;;;;;;21.30;19.00;;;;;;;;;;5047178;28;20087;-61
2021/06/22 12:58:48;;;;;;;21.95;18.25;;;;;;;;;;5047680;28;20056;-59
2021/06/22 13:01:28;;;;;;;22.17;19.52;;;;;;;;;;5047930;28;20036;-56
2021/06/22 13:03:54;;;;;;;21.67;19.27;;;;;;;;;;5047892;28;20028;-60
2021/06/22 13:06:26;;;;;;;22.98;19.67;;;;;;;;;;5033086;28;20025;-58
2021/06/22 13:08:57;;;;;;;23.33;19.15;;;;;;;;;;5050365;28;20021;-59
2021/06/22 13:11:29;;;;;;;21.20;19.02;;;;;;;;;;5035337;28;20025;-58
2021/06/22 13:14:14;;;;;;;23.00;19.88;;;;;;;;;;5035092;28;20125;-58
2021/06/22 13:16:41;;;;;;;22.05;19.15;;;;;;;;;;5052246;28;20028;-57
2021/06/22 13:19:09;;;;;;;26.00;20.80;;;;;;;;;;5053402;28;20056;-58
2021/06/22 13:21:45;;;;;;;25.20;21.38;;;;;;;;;;5035368;28;20025;-61
2021/06/22 13:24:12;;;;;;;23.38;20.90;;;;;;;;;;5034839;28;20447;-59
2021/06/22 13:26:39;;;;;;;24.60;21.55;;;;;;;;;;5053344;28;20040;-60
2021/06/22 13:29:06;;;;;;;23.77;19.95;;;;;;;;;;5053317;28;20025;-60
2021/06/22 13:31:32;;;;;;;22.75;19.10;;;;;;;;;;5034665;28;20025;-63
2021/06/22 13:33:59;;;;;;;23.38;20.88;;;;;;;;;;5052766;28;20025;-59
2021/06/22 13:36:25;;;;;;;25.13;21.85;;;;;;;;;;5052345;28;20090;-61
2021/06/22 13:39:18;;;;;;;27.30;20.77;;;;;;;;;;5052125;28;20036;-62
2021/06/22 13:41:44;;;;;;;23.60;21.30;;;;;;;;;;5048615;28;20055;-60
2021/06/22 13:44:10;;;;;;;23.60;21.10;;;;;;;;;;5034963;28;20092;-56
2021/06/22 13:46:37;;;;;;;23.00;19.27;;;;;;;;;;5052815;28;20117;-58
2021/06/22 13:49:04;;;;;;;22.23;19.83;;;;;;;;;;5053027;28;20096;-59
2021/06/22 13:51:31;;;;;;;21.70;19.38;;;;;;;;;;5034726;28;20476;-61
2021/06/22 13:54:08;;;;;;;26.50;20.55;;;;;;;;;;5035233;28;20032;-62
2021/06/22 13:56:34;;;;;;;23.23;20.85;;;;;;;;;;5051986;28;20052;-60
2021/06/22 13:59:01;;;;;;;24.48;20.80;;;;;;;;;;5052239;28;20029;-60
2021/06/22 14:01:27;;;;;;;23.38;21.08;;;;;;;;;;5051884;28;20036;-60
2021/06/22 14:03:57;;;;;;;24.25;20.85;;;;;;;;;;5052759;28;20509;-61
2021/06/22 14:06:23;;;;;;;23.48;21.08;;;;;;;;;;5052172;28;20362;-61
2021/06/22 14:08:49;;;;;;;24.85;22.23;;;;;;;;;;5034058;28;20017;-58
2021/06/22 14:11:15;;;;;;;24.90;22.25;;;;;;;;;;5053118;28;20033;-57
2021/06/22 14:13:42;;;;;;;24.80;22.15;;;;;;;;;;5052002;28;20032;-55
2021/06/22 14:16:08;;;;;;;24.98;22.13;;;;;;;;;;5052194;28;20021;-59
2021/06/22 14:18:35;;;;;;;23.98;21.48;;;;;;;;;;5033512;28;20029;-57
2021/06/22 14:21:01;;;;;;;23.60;21.10;;;;;;;;;;5051987;28;20091;-59